sensor_id;sensor_type;location;lat;lon;timestamp;temperature;humidity
13091;DHT22;6611;52.604;13.438;2023-07-31T00:04:03;15.61;85.81
13091;DHT22;6611;52.604;13.438;2023-07-31T00:09:04;15.53;85.94
13091;DHT22;6611;52.604;13.438;2023-07-31T00:14:06;15.50;85.78
13091;DHT22;6611;52.604;13.438;2023-07-31T00:19:09;15.50;85.75
13091;DHT22;6611;52.604;13.438;2023-07-31T00:24:10;15.52;85.24
13091;DHT22;6611;52.604;13.438;2023-07-31T00:29:12;15.44;85.87
13091;DHT22;6611;52.604;13.438;2023-07-31T00:34:15;15.39;86.24
13091;DHT22;6611;52.604;13.438;2023-07-31T00:39:17;15.40;86.49
13091;DHT22;6611;52.604;13.438;2023-07-31T00:44:19;15.38;86.14
13091;DHT22;6611;52.604;13.438;2023-07-31T00:49:22;15.36;86.43
13091;DHT22;6611;52.604;13.438;2023-07-31T00:54:24;15.35;86.95
13091;DHT22;6611;52.604;13.438;2023-07-31T00:59:25;15.35;86.78
13091;DHT22;6611;52.604;13.438;2023-07-31T01:04:28;15.39;86.58
13091;DHT22;6611;52.604;13.438;2023-07-31T01:09:37;15.43;86.63
13091;DHT22;6611;52.604;13.438;2023-07-31T01:14:51;15.42;86.78
13091;DHT22;6611;52.604;13.438;2023-07-31T01:19:55;15.47;86.56
13091;DHT22;6611;52.604;13.438;2023-07-31T01:25:14;15.50;86.92
13091;DHT22;6611;52.604;13.438;2023-07-31T01:30:24;15.52;86.75
13091;DHT22;6611;52.604;13.438;2023-07-31T01:35:27;15.57;86.92
13091;DHT22;6611;52.604;13.438;2023-07-31T01:40:28;15.61;86.54
13091;DHT22;6611;52.604;13.438;2023-07-31T01:45:31;15.73;86.37
13091;DHT22;6611;52.604;13.438;2023-07-31T01:50:33;15.77;86.43
13091;DHT22;6611;52.604;13.438;2023-07-31T01:55:35;15.76;86.73
13091;DHT22;6611;52.604;13.438;2023-07-31T02:00:38;15.70;87.08
13091;DHT22;6611;52.604;13.438;2023-07-31T02:05:44;15.69;87.22
13091;DHT22;6611;52.604;13.438;2023-07-31T02:10:46;15.69;87.42
13091;DHT22;6611;52.604;13.438;2023-07-31T02:15:49;15.71;87.44
13091;DHT22;6611;52.604;13.438;2023-07-31T02:20:51;15.73;87.71
13091;DHT22;6611;52.604;13.438;2023-07-31T02:25:53;15.71;88.27
13091;DHT22;6611;52.604;13.438;2023-07-31T02:30:56;15.74;88.22
13091;DHT22;6611;52.604;13.438;2023-07-31T02:35:57;15.73;88.34
13091;DHT22;6611;52.604;13.438;2023-07-31T02:40:59;15.71;88.49
13091;DHT22;6611;52.604;13.438;2023-07-31T02:46:02;15.67;88.96
13091;DHT22;6611;52.604;13.438;2023-07-31T02:51:04;15.77;88.89
13091;DHT22;6611;52.604;13.438;2023-07-31T02:56:05;15.74;89.07
13091;DHT22;6611;52.604;13.438;2023-07-31T03:01:08;15.81;89.04
13091;DHT22;6611;52.604;13.438;2023-07-31T03:06:10;15.78;89.16
13091;DHT22;6611;52.604;13.438;2023-07-31T03:11:11;15.77;89.18
13091;DHT22;6611;52.604;13.438;2023-07-31T03:16:14;15.73;89.09
13091;DHT22;6611;52.604;13.438;2023-07-31T03:21:16;15.74;89.31
13091;DHT22;6611;52.604;13.438;2023-07-31T03:26:18;15.80;89.31
13091;DHT22;6611;52.604;13.438;2023-07-31T03:31:21;15.80;89.32
13091;DHT22;6611;52.604;13.438;2023-07-31T03:36:22;15.73;88.96
13091;DHT22;6611;52.604;13.438;2023-07-31T03:41:25;15.77;89.46
13091;DHT22;6611;52.604;13.438;2023-07-31T03:46:28;15.77;88.75
13091;DHT22;6611;52.604;13.438;2023-07-31T03:51:30;15.77;88.73
13091;DHT22;6611;52.604;13.438;2023-07-31T03:56:31;15.73;88.60
13091;DHT22;6611;52.604;13.438;2023-07-31T04:01:34;15.71;88.94
13091;DHT22;6611;52.604;13.438;2023-07-31T04:06:36;15.78;88.54
13091;DHT22;6611;52.604;13.438;2023-07-31T04:11:38;15.80;88.58
13091;DHT22;6611;52.604;13.438;2023-07-31T04:16:41;15.80;88.47
13091;DHT22;6611;52.604;13.438;2023-07-31T04:21:43;15.81;88.36
13091;DHT22;6611;52.604;13.438;2023-07-31T04:26:45;15.86;87.89
13091;DHT22;6611;52.604;13.438;2023-07-31T04:31:48;15.88;87.85
13091;DHT22;6611;52.604;13.438;2023-07-31T04:36:49;15.94;87.42
13091;DHT22;6611;52.604;13.438;2023-07-31T04:41:51;16.00;87.61
13091;DHT22;6611;52.604;13.438;2023-07-31T04:46:54;16.05;87.55
13091;DHT22;6611;52.604;13.438;2023-07-31T04:51:56;16.06;87.57
13091;DHT22;6611;52.604;13.438;2023-07-31T04:56:57;16.12;86.89
13091;DHT22;6611;52.604;13.438;2023-07-31T05:02:00;16.12;87.08
13091;DHT22;6611;52.604;13.438;2023-07-31T05:07:02;16.12;87.15
13091;DHT22;6611;52.604;13.438;2023-07-31T05:12:05;16.11;87.48
13091;DHT22;6611;52.604;13.438;2023-07-31T05:17:08;16.14;87.21
13091;DHT22;6611;52.604;13.438;2023-07-31T05:22:10;16.21;87.17
13091;DHT22;6611;52.604;13.438;2023-07-31T05:27:11;16.26;86.54
13091;DHT22;6611;52.604;13.438;2023-07-31T05:32:16;16.40;86.71
13091;DHT22;6611;52.604;13.438;2023-07-31T05:37:18;16.49;87.04
13091;DHT22;6611;52.604;13.438;2023-07-31T05:42:20;16.53;86.86
13091;DHT22;6611;52.604;13.438;2023-07-31T05:47:23;16.66;86.68
13091;DHT22;6611;52.604;13.438;2023-07-31T05:52:24;16.67;86.44
13091;DHT22;6611;52.604;13.438;2023-07-31T05:57:26;16.60;86.47
13091;DHT22;6611;52.604;13.438;2023-07-31T06:02:29;16.66;86.18
13091;DHT22;6611;52.604;13.438;2023-07-31T06:07:33;16.61;86.11
13091;DHT22;6611;52.604;13.438;2023-07-31T06:12:35;16.66;86.25
13091;DHT22;6611;52.604;13.438;2023-07-31T06:17:38;16.74;86.30
13091;DHT22;6611;52.604;13.438;2023-07-31T06:22:40;16.73;86.39
13091;DHT22;6611;52.604;13.438;2023-07-31T06:27:41;16.85;85.97
13091;DHT22;6611;52.604;13.438;2023-07-31T06:32:44;16.89;85.74
13091;DHT22;6611;52.604;13.438;2023-07-31T06:37:46;16.91;85.89
13091;DHT22;6611;52.604;13.438;2023-07-31T06:42:48;16.98;85.74
13091;DHT22;6611;52.604;13.438;2023-07-31T06:47:51;16.98;85.88
13091;DHT22;6611;52.604;13.438;2023-07-31T06:52:52;17.08;85.52
13091;DHT22;6611;52.604;13.438;2023-07-31T06:57:55;16.88;85.84
13091;DHT22;6611;52.604;13.438;2023-07-31T07:02:58;16.87;86.71
13091;DHT22;6611;52.604;13.438;2023-07-31T07:07:59;16.95;85.91
13091;DHT22;6611;52.604;13.438;2023-07-31T07:13:01;17.00;86.25
13091;DHT22;6611;52.604;13.438;2023-07-31T07:18:04;17.00;86.45
13091;DHT22;6611;52.604;13.438;2023-07-31T07:23:06;17.12;85.87
13091;DHT22;6611;52.604;13.438;2023-07-31T07:28:07;17.07;85.98
13091;DHT22;6611;52.604;13.438;2023-07-31T07:33:10;17.25;85.55
13091;DHT22;6611;52.604;13.438;2023-07-31T07:38:13;17.39;84.24
13091;DHT22;6611;52.604;13.438;2023-07-31T07:43:15;17.73;83.66
13091;DHT22;6611;52.604;13.438;2023-07-31T07:48:18;17.74;83.31
13091;DHT22;6611;52.604;13.438;2023-07-31T07:53:20;17.53;85.03
13091;DHT22;6611;52.604;13.438;2023-07-31T07:58:21;17.57;84.73
13091;DHT22;6611;52.604;13.438;2023-07-31T08:03:24;17.61;83.82
13091;DHT22;6611;52.604;13.438;2023-07-31T08:08:28;17.51;83.64
13091;DHT22;6611;52.604;13.438;2023-07-31T08:13:29;17.54;83.87
13091;DHT22;6611;52.604;13.438;2023-07-31T08:18:33;17.53;84.28
13091;DHT22;6611;52.604;13.438;2023-07-31T08:23:35;17.45;85.67
13091;DHT22;6611;52.604;13.438;2023-07-31T08:28:36;17.49;85.22
13091;DHT22;6611;52.604;13.438;2023-07-31T08:33:41;17.40;85.37
13091;DHT22;6611;52.604;13.438;2023-07-31T08:38:45;17.40;85.82
13091;DHT22;6611;52.604;13.438;2023-07-31T08:43:47;17.40;85.62
13091;DHT22;6611;52.604;13.438;2023-07-31T08:48:52;17.47;85.87
13091;DHT22;6611;52.604;13.438;2023-07-31T08:53:54;17.53;85.87
13091;DHT22;6611;52.604;13.438;2023-07-31T08:58:58;17.51;84.95
13091;DHT22;6611;52.604;13.438;2023-07-31T09:04:04;17.85;84.91
13091;DHT22;6611;52.604;13.438;2023-07-31T09:09:06;18.09;83.86
13091;DHT22;6611;52.604;13.438;2023-07-31T09:14:08;18.15;83.27
13091;DHT22;6611;52.604;13.438;2023-07-31T09:19:11;18.09;82.86
13091;DHT22;6611;52.604;13.438;2023-07-31T09:24:25;18.17;83.64
13091;DHT22;6611;52.604;13.438;2023-07-31T09:29:27;18.36;82.79
13091;DHT22;6611;52.604;13.438;2023-07-31T09:34:38;18.36;83.28
13091;DHT22;6611;52.604;13.438;2023-07-31T09:39:46;18.10;84.14
13091;DHT22;6611;52.604;13.438;2023-07-31T09:44:48;17.97;84.81
13091;DHT22;6611;52.604;13.438;2023-07-31T09:49:51;17.87;84.79
13091;DHT22;6611;52.604;13.438;2023-07-31T09:54:52;17.84;84.93
13091;DHT22;6611;52.604;13.438;2023-07-31T09:59:54;17.75;86.07
13091;DHT22;6611;52.604;13.438;2023-07-31T10:05:01;17.87;85.68
13091;DHT22;6611;52.604;13.438;2023-07-31T10:10:05;18.08;85.83
13091;DHT22;6611;52.604;13.438;2023-07-31T10:15:08;18.30;84.33
13091;DHT22;6611;52.604;13.438;2023-07-31T10:20:12;18.53;83.23
13091;DHT22;6611;52.604;13.438;2023-07-31T10:25:15;18.21;83.41
13091;DHT22;6611;52.604;13.438;2023-07-31T10:30:19;17.97;84.47
13091;DHT22;6611;52.604;13.438;2023-07-31T10:35:23;17.99;84.17
13091;DHT22;6611;52.604;13.438;2023-07-31T10:40:26;17.95;84.90
13091;DHT22;6611;52.604;13.438;2023-07-31T10:45:31;17.99;85.43
13091;DHT22;6611;52.604;13.438;2023-07-31T10:50:37;17.97;84.97
13091;DHT22;6611;52.604;13.438;2023-07-31T10:55:40;18.21;84.58
13091;DHT22;6611;52.604;13.438;2023-07-31T11:00:43;18.60;84.51
13091;DHT22;6611;52.604;13.438;2023-07-31T11:05:51;19.68;83.20
13091;DHT22;6611;52.604;13.438;2023-07-31T11:11:05;20.36;78.65
13091;DHT22;6611;52.604;13.438;2023-07-31T11:16:07;20.34;78.24
13091;DHT22;6611;52.604;13.438;2023-07-31T11:21:13;20.13;79.41
13091;DHT22;6611;52.604;13.438;2023-07-31T11:26:16;20.30;78.18
13091;DHT22;6611;52.604;13.438;2023-07-31T11:31:18;20.50;76.62
13091;DHT22;6611;52.604;13.438;2023-07-31T11:36:21;20.20;77.86
13091;DHT22;6611;52.604;13.438;2023-07-31T11:41:23;20.45;76.71
13091;DHT22;6611;52.604;13.438;2023-07-31T11:46:25;20.19;76.50
13091;DHT22;6611;52.604;13.438;2023-07-31T11:51:28;19.84;77.43
13091;DHT22;6611;52.604;13.438;2023-07-31T11:56:31;19.81;78.04
13091;DHT22;6611;52.604;13.438;2023-07-31T12:01:32;19.81;75.87
13091;DHT22;6611;52.604;13.438;2023-07-31T12:06:37;19.73;76.21
13091;DHT22;6611;52.604;13.438;2023-07-31T12:11:45;19.67;74.91
13091;DHT22;6611;52.604;13.438;2023-07-31T12:16:47;19.54;76.95
13091;DHT22;6611;52.604;13.438;2023-07-31T12:21:50;19.37;77.88
13091;DHT22;6611;52.604;13.438;2023-07-31T12:26:52;19.31;79.28
13091;DHT22;6611;52.604;13.438;2023-07-31T12:31:55;19.27;80.48
13091;DHT22;6611;52.604;13.438;2023-07-31T12:36:58;19.29;80.81
13091;DHT22;6611;52.604;13.438;2023-07-31T12:42:00;19.29;80.09
13091;DHT22;6611;52.604;13.438;2023-07-31T12:47:01;19.26;78.69
13091;DHT22;6611;52.604;13.438;2023-07-31T12:52:06;19.37;78.18
13091;DHT22;6611;52.604;13.438;2023-07-31T12:57:08;19.39;75.55
13091;DHT22;6611;52.604;13.438;2023-07-31T13:02:09;19.40;77.30
13091;DHT22;6611;52.604;13.438;2023-07-31T13:07:12;19.27;78.95
13091;DHT22;6611;52.604;13.438;2023-07-31T13:12:14;19.33;80.42
13091;DHT22;6611;52.604;13.438;2023-07-31T13:17:16;19.36;82.26
13091;DHT22;6611;52.604;13.438;2023-07-31T13:22:19;19.20;82.61
13091;DHT22;6611;52.604;13.438;2023-07-31T13:27:20;19.19;83.90
13091;DHT22;6611;52.604;13.438;2023-07-31T13:32:22;19.50;83.28
13091;DHT22;6611;52.604;13.438;2023-07-31T13:37:25;19.78;82.53
13091;DHT22;6611;52.604;13.438;2023-07-31T13:42:27;19.92;82.42
13091;DHT22;6611;52.604;13.438;2023-07-31T13:47:29;20.02;82.13
13091;DHT22;6611;52.604;13.438;2023-07-31T13:52:32;20.10;82.53
13091;DHT22;6611;52.604;13.438;2023-07-31T13:57:34;20.37;80.79
13091;DHT22;6611;52.604;13.438;2023-07-31T14:02:36;20.25;78.36
13091;DHT22;6611;52.604;13.438;2023-07-31T14:07:39;20.13;76.87
13091;DHT22;6611;52.604;13.438;2023-07-31T14:12:40;20.12;76.45
13091;DHT22;6611;52.604;13.438;2023-07-31T14:17:42;20.16;75.41
13091;DHT22;6611;52.604;13.438;2023-07-31T14:22:45;20.01;75.30
13091;DHT22;6611;52.604;13.438;2023-07-31T14:27:47;20.01;75.60
13091;DHT22;6611;52.604;13.438;2023-07-31T14:32:48;19.98;75.49
13091;DHT22;6611;52.604;13.438;2023-07-31T14:37:51;20.04;74.74
13091;DHT22;6611;52.604;13.438;2023-07-31T14:42:53;19.96;75.02
13091;DHT22;6611;52.604;13.438;2023-07-31T14:47:54;20.02;74.77
13091;DHT22;6611;52.604;13.438;2023-07-31T14:52:58;20.06;75.06
13091;DHT22;6611;52.604;13.438;2023-07-31T14:58:00;20.05;76.02
13091;DHT22;6611;52.604;13.438;2023-07-31T15:03:01;20.04;74.75
13091;DHT22;6611;52.604;13.438;2023-07-31T15:08:05;20.05;73.87
13091;DHT22;6611;52.604;13.438;2023-07-31T15:13:06;20.19;72.48
13091;DHT22;6611;52.604;13.438;2023-07-31T15:18:08;20.23;74.09
13091;DHT22;6611;52.604;13.438;2023-07-31T15:23:11;20.25;73.19
13091;DHT22;6611;52.604;13.438;2023-07-31T15:28:12;20.23;72.79
13091;DHT22;6611;52.604;13.438;2023-07-31T15:33:14;20.45;71.74
13091;DHT22;6611;52.604;13.438;2023-07-31T15:38:20;20.47;71.08
13091;DHT22;6611;52.604;13.438;2023-07-31T15:43:22;20.37;71.71
13091;DHT22;6611;52.604;13.438;2023-07-31T15:48:24;20.36;71.37
13091;DHT22;6611;52.604;13.438;2023-07-31T15:53:27;20.29;71.82
13091;DHT22;6611;52.604;13.438;2023-07-31T15:58:29;20.22;72.45
13091;DHT22;6611;52.604;13.438;2023-07-31T16:03:30;20.23;72.45
13091;DHT22;6611;52.604;13.438;2023-07-31T16:08:33;20.20;71.97
13091;DHT22;6611;52.604;13.438;2023-07-31T16:13:41;20.15;72.64
13091;DHT22;6611;52.604;13.438;2023-07-31T16:18:42;20.08;72.80
13091;DHT22;6611;52.604;13.438;2023-07-31T16:23:45;20.04;73.69
13091;DHT22;6611;52.604;13.438;2023-07-31T16:28:47;19.89;75.17
13091;DHT22;6611;52.604;13.438;2023-07-31T16:33:48;20.04;73.82
13091;DHT22;6611;52.604;13.438;2023-07-31T16:38:51;20.05;74.00
13091;DHT22;6611;52.604;13.438;2023-07-31T16:43:53;19.95;73.86
13091;DHT22;6611;52.604;13.438;2023-07-31T16:48:55;19.98;73.82
13091;DHT22;6611;52.604;13.438;2023-07-31T16:53:58;20.06;73.16
13091;DHT22;6611;52.604;13.438;2023-07-31T16:59:00;20.20;72.89
13091;DHT22;6611;52.604;13.438;2023-07-31T17:04:02;20.32;71.62
13091;DHT22;6611;52.604;13.438;2023-07-31T17:09:05;20.41;70.70
13091;DHT22;6611;52.604;13.438;2023-07-31T17:14:07;20.48;70.48
13091;DHT22;6611;52.604;13.438;2023-07-31T17:19:09;20.53;70.21
13091;DHT22;6611;52.604;13.438;2023-07-31T17:24:11;20.40;71.26
13091;DHT22;6611;52.604;13.438;2023-07-31T17:29:14;20.08;76.06
13091;DHT22;6611;52.604;13.438;2023-07-31T17:34:16;19.61;80.29
13091;DHT22;6611;52.604;13.438;2023-07-31T17:39:19;19.16;82.55
13091;DHT22;6611;52.604;13.438;2023-07-31T17:44:21;18.81;84.13
13091;DHT22;6611;52.604;13.438;2023-07-31T17:49:22;18.71;84.53
13091;DHT22;6611;52.604;13.438;2023-07-31T17:54:25;18.71;84.49
13091;DHT22;6611;52.604;13.438;2023-07-31T17:59:27;18.64;84.84
13091;DHT22;6611;52.604;13.438;2023-07-31T18:04:29;18.61;85.06
13091;DHT22;6611;52.604;13.438;2023-07-31T18:09:32;18.54;85.33
13091;DHT22;6611;52.604;13.438;2023-07-31T18:14:34;18.54;85.13
13091;DHT22;6611;52.604;13.438;2023-07-31T18:19:38;18.49;85.52
13091;DHT22;6611;52.604;13.438;2023-07-31T18:24:41;18.42;85.81
13091;DHT22;6611;52.604;13.438;2023-07-31T18:29:42;18.39;85.70
13091;DHT22;6611;52.604;13.438;2023-07-31T18:34:44;18.42;85.68
13091;DHT22;6611;52.604;13.438;2023-07-31T18:39:47;18.34;85.98
13091;DHT22;6611;52.604;13.438;2023-07-31T18:44:49;18.34;85.71
13091;DHT22;6611;52.604;13.438;2023-07-31T18:49:50;18.29;85.87
13091;DHT22;6611;52.604;13.438;2023-07-31T18:54:53;18.26;85.90
13091;DHT22;6611;52.604;13.438;2023-07-31T18:59:56;18.30;85.13
13091;DHT22;6611;52.604;13.438;2023-07-31T19:04:57;18.34;84.42
13091;DHT22;6611;52.604;13.438;2023-07-31T19:10:00;18.37;83.61
13091;DHT22;6611;52.604;13.438;2023-07-31T19:15:03;18.43;82.96
13091;DHT22;6611;52.604;13.438;2023-07-31T19:20:06;18.37;82.89
13091;DHT22;6611;52.604;13.438;2023-07-31T19:25:09;18.37;82.51
13091;DHT22;6611;52.604;13.438;2023-07-31T19:30:11;18.32;82.30
13091;DHT22;6611;52.604;13.438;2023-07-31T19:35:14;18.34;81.95
13091;DHT22;6611;52.604;13.438;2023-07-31T19:40:18;18.40;81.46
13091;DHT22;6611;52.604;13.438;2023-07-31T19:45:21;18.40;81.61
13091;DHT22;6611;52.604;13.438;2023-07-31T19:50:23;18.43;81.60
13091;DHT22;6611;52.604;13.438;2023-07-31T19:55:26;18.46;80.69
13091;DHT22;6611;52.604;13.438;2023-07-31T20:00:29;18.49;80.63
13091;DHT22;6611;52.604;13.438;2023-07-31T20:05:31;18.49;80.92
13091;DHT22;6611;52.604;13.438;2023-07-31T20:10:34;18.49;80.84
13091;DHT22;6611;52.604;13.438;2023-07-31T20:15:36;18.56;80.42
13091;DHT22;6611;52.604;13.438;2023-07-31T20:20:38;18.57;80.56
13091;DHT22;6611;52.604;13.438;2023-07-31T20:25:40;18.64;79.82
13091;DHT22;6611;52.604;13.438;2023-07-31T20:30:43;18.61;80.01
13091;DHT22;6611;52.604;13.438;2023-07-31T20:35:45;18.63;80.20
13091;DHT22;6611;52.604;13.438;2023-07-31T20:40:49;18.61;79.92
13091;DHT22;6611;52.604;13.438;2023-07-31T20:45:51;18.65;79.95
13091;DHT22;6611;52.604;13.438;2023-07-31T20:50:52;18.60;79.78
13091;DHT22;6611;52.604;13.438;2023-07-31T20:55:56;18.74;79.11
13091;DHT22;6611;52.604;13.438;2023-07-31T21:00:58;18.74;79.48
13091;DHT22;6611;52.604;13.438;2023-07-31T21:06:00;18.68;79.69
13091;DHT22;6611;52.604;13.438;2023-07-31T21:11:03;18.65;79.88
13091;DHT22;6611;52.604;13.438;2023-07-31T21:16:04;18.64;79.88
13091;DHT22;6611;52.604;13.438;2023-07-31T21:21:06;18.57;80.19
13091;DHT22;6611;52.604;13.438;2023-07-31T21:26:09;18.54;80.41
13091;DHT22;6611;52.604;13.438;2023-07-31T21:31:11;18.51;79.95
13091;DHT22;6611;52.604;13.438;2023-07-31T21:36:13;18.56;80.58
13091;DHT22;6611;52.604;13.438;2023-07-31T21:41:16;18.63;80.28
13091;DHT22;6611;52.604;13.438;2023-07-31T21:46:18;18.60;79.82
13091;DHT22;6611;52.604;13.438;2023-07-31T21:51:20;18.57;80.12
13091;DHT22;6611;52.604;13.438;2023-07-31T21:56:23;18.61;80.07
13091;DHT22;6611;52.604;13.438;2023-07-31T22:01:24;18.59;79.79
13091;DHT22;6611;52.604;13.438;2023-07-31T22:06:26;18.63;79.92
13091;DHT22;6611;52.604;13.438;2023-07-31T22:11:29;18.59;79.77
13091;DHT22;6611;52.604;13.438;2023-07-31T22:16:32;18.57;80.51
13091;DHT22;6611;52.604;13.438;2023-07-31T22:21:35;18.51;80.53
13091;DHT22;6611;52.604;13.438;2023-07-31T22:26:39;18.46;80.37
13091;DHT22;6611;52.604;13.438;2023-07-31T22:31:42;18.49;80.45
13091;DHT22;6611;52.604;13.438;2023-07-31T22:36:44;18.46;80.61
13091;DHT22;6611;52.604;13.438;2023-07-31T22:41:47;18.49;80.44
13091;DHT22;6611;52.604;13.438;2023-07-31T22:46:48;18.47;80.73
13091;DHT22;6611;52.604;13.438;2023-07-31T22:51:50;18.47;80.71
13091;DHT22;6611;52.604;13.438;2023-07-31T22:56:53;18.37;81.03
13091;DHT22;6611;52.604;13.438;2023-07-31T23:01:55;18.40;80.35
13091;DHT22;6611;52.604;13.438;2023-07-31T23:06:57;18.46;80.41
13091;DHT22;6611;52.604;13.438;2023-07-31T23:12:00;18.42;80.52
13091;DHT22;6611;52.604;13.438;2023-07-31T23:17:02;18.39;80.49
13091;DHT22;6611;52.604;13.438;2023-07-31T23:22:04;18.39;80.50
13091;DHT22;6611;52.604;13.438;2023-07-31T23:27:07;18.50;80.19
13091;DHT22;6611;52.604;13.438;2023-07-31T23:32:09;18.43;80.35
13091;DHT22;6611;52.604;13.438;2023-07-31T23:37:11;18.46;80.41
13091;DHT22;6611;52.604;13.438;2023-07-31T23:42:14;18.39;81.13
13091;DHT22;6611;52.604;13.438;2023-07-31T23:47:15;18.36;81.00
13091;DHT22;6611;52.604;13.438;2023-07-31T23:52:17;18.32;80.36
13091;DHT22;6611;52.604;13.438;2023-07-31T23:57:20;18.50;80.22
